Time;durP1;ratioP1;P1;durP2;ratioP2;P2;SDS_P1;SDS_P2;PMS_P1;PMS_P2;Temp;Humidity;BMP_temperature;BMP_pressure;BME280_temperature;BME280_humidity;BME280_pressure;Samples;Min_cycle;Max_cycle;Signal;HPM_P1;HPM_P2
2023/12/24 00:01:53;;;;;;;1.80;1.70;;;;;;;13.46;44.35;99587.34;10356271;28;20268;-67
2023/12/24 00:06:55;;;;;;;1.70;1.60;;;;;;;11.81;45.88;99766.25;10356703;28;20317;-67
2023/12/24 00:11:56;;;;;;;1.97;1.87;;;;;;;13.62;44.13;99618.31;10361597;28;20252;-68
2023/12/24 00:16:58;;;;;;;2.17;2.07;;;;;;;13.42;44.43;99626.41;10362670;28;20233;-68
2023/12/24 00:22:00;;;;;;;2.10;1.90;;;;;;;13.62;44.04;99580.69;10362694;28;20229;-67
2023/12/24 00:27:02;;;;;;;2.87;2.30;;;;;;;13.18;44.24;99657.38;10362759;28;20530;-69
2023/12/24 00:32:04;;;;;;;2.60;2.40;;;;;;;14.01;42.76;99626.53;10362575;28;20265;-70
2023/12/24 00:37:05;;;;;;;2.30;2.20;;;;;;;13.26;43.86;99635.69;10362672;28;20323;-70
2023/12/24 00:42:07;;;;;;;2.20;2.10;;;;;;;13.54;43.46;99649.97;10362613;28;20235;-70
2023/12/24 00:47:09;;;;;;;2.60;2.40;;;;;;;13.00;43.56;99794.94;10357788;28;20229;-68
2023/12/24 00:52:11;;;;;;;2.20;2.10;;;;;;;14.23;42.55;99632.50;10361214;28;20237;-68
2023/12/24 00:57:14;;;;;;;2.33;2.20;;;;;;;13.10;42.85;99795.38;10359939;28;20229;-67
2023/12/24 01:02:16;;;;;;;2.30;2.10;;;;;;;14.68;41.61;99629.81;10361834;28;20335;-66
2023/12/24 01:07:17;;;;;;;1.80;1.70;;;;;;;13.41;42.46;99799.47;10361663;28;20229;-66
2023/12/24 01:12:19;;;;;;;2.53;2.33;;;;;;;13.48;42.23;99821.81;10359408;28;20677;-66
2023/12/24 01:17:21;;;;;;;2.23;2.07;;;;;;;13.68;41.85;99777.97;10359309;28;20237;-67
2023/12/24 01:22:22;;;;;;;2.07;1.97;;;;;;;13.43;41.97;99778.59;10360885;28;20225;-65
2023/12/24 01:27:24;;;;;;;1.77;1.67;;;;;;;14.27;41.10;99732.47;10360493;28;20247;-66
2023/12/24 01:32:26;;;;;;;2.60;2.00;;;;;;;14.87;40.59;99713.47;10361065;28;20236;-66
2023/12/24 01:37:28;;;;;;;2.40;2.30;;;;;;;14.57;40.80;99720.16;10359352;28;20245;-66
2023/12/24 01:42:29;;;;;;;2.07;1.90;;;;;;;14.02;41.34;99704.34;10360068;28;20245;-66
2023/12/24 01:47:31;;;;;;;1.83;1.60;;;;;;;13.31;42.68;99694.19;10356195;28;20245;-66
2023/12/24 01:52:33;;;;;;;2.90;2.20;;;;;;;13.65;41.84;99716.59;10359439;28;20240;-66
2023/12/24 01:57:35;;;;;;;2.13;2.00;;;;;;;12.60;44.06;99553.16;10358946;28;20241;-65
2023/12/24 02:02:38;;;;;;;2.23;1.80;;;;;;;12.49;43.96;99589.47;10356428;28;20739;-65
2023/12/24 02:07:41;;;;;;;2.77;1.80;;;;;;;14.14;42.88;99551.19;10359559;28;20248;-66
2023/12/24 02:12:43;;;;;;;1.87;1.70;;;;;;;13.40;44.21;99512.09;10358849;28;20240;-66
2023/12/24 02:17:45;;;;;;;2.30;2.20;;;;;;;12.63;44.62;99608.28;10355995;28;20580;-66
2023/12/24 02:22:47;;;;;;;2.10;1.77;;;;;;;12.14;45.38;99559.19;10359355;28;20225;-66
2023/12/24 02:28:04;;;;;;;1.80;1.70;;;;;;;13.13;44.95;99482.53;10358113;28;20237;-65
2023/12/24 02:33:08;;;;;;;3.53;2.00;;;;;;;12.34;45.44;99529.75;10359041;28;20327;-67
2023/12/24 02:38:10;;;;;;;1.97;1.87;;;;;;;12.63;45.12;99533.13;10357702;28;20237;-66
2023/12/24 02:43:12;;;;;;;2.20;2.10;;;;;;;13.10;43.58;99568.91;10359745;28;20233;-66
2023/12/24 02:48:14;;;;;;;2.17;2.00;;;;;;;12.85;43.66;99590.97;10357175;28;20369;-66
2023/12/24 02:53:16;;;;;;;2.40;2.30;;;;;;;14.58;42.10;99490.25;10354042;28;20238;-67
2023/12/24 02:58:19;;;;;;;2.07;1.97;;;;;;;12.92;43.35;99615.16;10357500;28;20697;-67
2023/12/24 03:03:20;;;;;;;2.67;2.47;;;;;;;13.45;42.56;99601.81;10355857;28;20324;-65
2023/12/24 03:08:22;;;;;;;1.90;1.80;;;;;;;12.87;43.39;99556.72;10356901;28;20589;-68
2023/12/24 03:13:24;;;;;;;1.80;1.70;;;;;;;14.11;41.79;99604.59;10356310;28;20234;-66
2023/12/24 03:18:25;;;;;;;2.10;2.00;;;;;;;13.14;42.69;99629.25;10357043;28;20279;-66
2023/12/24 03:23:27;;;;;;;3.87;2.00;;;;;;;13.42;42.31;99634.47;10357450;28;20243;-66
2023/12/24 03:28:30;;;;;;;1.70;1.60;;;;;;;13.08;42.50;99624.72;10356952;28;20237;-66
2023/12/24 03:33:32;;;;;;;2.00;1.90;;;;;;;13.63;41.76;99664.84;10357529;28;20320;-66
2023/12/24 03:38:34;;;;;;;2.07;1.97;;;;;;;12.62;43.01;99682.63;10355802;28;20667;-66
2023/12/24 03:43:36;;;;;;;2.60;2.20;;;;;;;13.95;41.82;99485.66;10357735;28;20411;-67
2023/12/24 03:48:38;;;;;;;2.10;2.00;;;;;;;13.18;43.19;99511.47;10363275;28;20731;-67
2023/12/24 03:53:40;;;;;;;2.40;2.20;;;;;;;13.95;41.30;99646.19;10364880;28;20245;-67
2023/12/24 03:58:42;;;;;;;2.10;2.00;;;;;;;12.70;43.75;99550.06;10358922;28;20461;-67
2023/12/24 04:03:46;;;;;;;2.53;2.33;;;;;;;13.84;42.60;99494.38;10363962;28;20267;-67
2023/12/24 04:08:48;;;;;;;2.10;2.00;;;;;;;13.32;43.17;99510.44;10357159;28;20229;-66
2023/12/24 04:13:50;;;;;;;2.10;1.90;;;;;;;14.14;42.42;99516.22;10362887;28;20209;-66
2023/12/24 04:18:51;;;;;;;2.40;2.20;;;;;;;13.12;43.42;99615.19;10363226;28;20269;-67
2023/12/24 04:23:53;;;;;;;2.10;2.00;;;;;;;12.51;44.19;99661.72;10364092;28;20221;-66
2023/12/24 04:28:55;;;;;;;2.10;2.00;;;;;;;13.46;43.49;99525.53;10362633;28;20764;-67
2023/12/24 04:33:56;;;;;;;2.10;1.90;;;;;;;14.06;43.13;99418.75;10364196;28;20679;-66
2023/12/24 04:38:58;;;;;;;2.10;2.00;;;;;;;13.09;44.01;99481.28;10362104;28;20606;-67
2023/12/24 04:44:00;;;;;;;2.50;2.40;;;;;;;13.42;43.04;99473.19;10361773;28;20308;-67
2023/12/24 04:49:01;;;;;;;2.10;2.00;;;;;;;14.09;42.21;99497.19;10361011;28;20485;-67
2023/12/24 04:54:03;;;;;;;1.70;1.60;;;;;;;12.32;44.65;99505.78;10362651;28;20241;-67
2023/12/24 04:59:06;;;;;;;2.20;2.10;;;;;;;13.78;42.69;99514.84;10356482;28;20593;-66
2023/12/24 05:04:07;;;;;;;2.13;2.03;;;;;;;13.68;43.18;99447.25;10354634;28;20254;-66
2023/12/24 05:09:09;;;;;;;1.80;1.70;;;;;;;13.80;42.98;99415.16;10361264;28;20623;-67
2023/12/24 05:14:11;;;;;;;1.80;1.70;;;;;;;13.69;42.80;99475.00;10360884;28;20606;-67
2023/12/24 05:19:12;;;;;;;1.80;1.70;;;;;;;13.75;42.08;99533.28;10361468;28;20240;-67
2023/12/24 05:24:14;;;;;;;1.97;1.60;;;;;;;13.33;43.20;99514.78;10360741;28;20714;-67
2023/12/24 05:29:18;;;;;;;2.17;2.07;;;;;;;13.08;43.33;99479.66;10360806;28;20328;-66
2023/12/24 05:34:20;;;;;;;1.70;1.60;;;;;;;13.49;43.20;99470.50;10360521;28;20231;-66
2023/12/24 05:39:21;;;;;;;2.00;1.90;;;;;;;13.46;43.46;99409.94;10360376;28;20233;-67
2023/12/24 05:44:23;;;;;;;2.03;1.70;;;;;;;12.99;43.68;99502.38;10358184;28;20235;-67
2023/12/24 05:49:25;;;;;;;1.80;1.70;;;;;;;13.54;43.16;99435.75;10361102;28;20796;-67
2023/12/24 05:54:26;;;;;;;1.90;1.80;;;;;;;13.74;43.28;99375.69;10359028;28;20229;-67
2023/12/24 05:59:28;;;;;;;2.20;2.00;;;;;;;13.82;42.47;99483.00;10358852;28;20327;-66
2023/12/24 06:04:30;;;;;;;1.80;1.70;;;;;;;13.95;42.65;99396.03;10357602;28;20627;-67
2023/12/24 06:09:31;;;;;;;2.00;1.90;;;;;;;13.77;42.85;99399.47;10360061;28;20593;-67
2023/12/24 06:14:33;;;;;;;2.07;1.73;;;;;;;12.63;43.76;99460.66;10354374;28;20567;-67
2023/12/24 06:19:35;;;;;;;2.00;1.90;;;;;;;14.15;41.95;99479.34;10360517;28;20241;-67
2023/12/24 06:24:37;;;;;;;2.10;2.00;;;;;;;12.99;43.56;99480.88;10358919;28;20682;-67
2023/12/24 06:29:38;;;;;;;2.30;2.10;;;;;;;14.25;42.26;99376.63;10358422;28;20319;-67
2023/12/24 06:34:40;;;;;;;2.10;2.00;;;;;;;12.61;44.23;99478.84;10358472;28;20245;-67
2023/12/24 06:39:42;;;;;;;2.10;2.00;;;;;;;14.36;42.55;99365.97;10359125;28;20243;-66
2023/12/24 06:44:43;;;;;;;2.10;2.00;;;;;;;14.34;42.31;99415.66;10358322;28;20240;-67
2023/12/24 06:49:46;;;;;;;1.60;1.60;;;;;;;11.68;46.19;99413.19;10358481;28;20240;-65
2023/12/24 06:54:47;;;;;;;1.90;1.80;;;;;;;14.51;41.79;99451.81;10356140;28;20225;-65
2023/12/24 06:59:49;;;;;;;1.80;1.77;;;;;;;13.02;44.44;99414.16;10358907;28;20265;-65
2023/12/24 07:04:51;;;;;;;2.00;1.90;;;;;;;12.94;43.85;99494.97;10355419;28;20559;-66
2023/12/24 07:09:53;;;;;;;3.30;2.30;;;;;;;13.42;42.69;99534.19;10358949;28;20726;-66
2023/12/24 07:14:54;;;;;;;2.20;1.90;;;;;;;12.96;44.37;99411.47;10357828;28;20263;-66
2023/12/24 07:19:56;;;;;;;2.60;2.20;;;;;;;13.50;44.04;99367.34;10356489;28;20303;-66
2023/12/24 07:24:58;;;;;;;2.20;2.10;;;;;;;13.84;43.56;99347.28;10365439;28;20324;-66
2023/12/24 07:29:59;;;;;;;1.90;1.80;;;;;;;12.50;44.70;99346.06;10366190;28;20336;-66
2023/12/24 07:35:01;;;;;;;1.90;1.80;;;;;;;12.72;45.35;99314.44;10366320;28;20231;-66
2023/12/24 07:40:03;;;;;;;1.60;1.60;;;;;;;13.01;43.79;99412.50;10364561;28;20272;-65
2023/12/24 07:45:05;;;;;;;1.90;1.80;;;;;;;14.31;42.99;99338.09;10365118;28;20225;-66
2023/12/24 07:50:07;;;;;;;1.60;1.60;;;;;;;13.45;43.51;99365.28;10364058;28;20615;-67
2023/12/24 07:55:09;;;;;;;1.83;1.73;;;;;;;11.45;45.45;99534.03;10363803;28;20240;-66
2023/12/24 08:00:11;;;;;;;2.00;1.90;;;;;;;14.62;42.93;99322.88;10364427;28;20731;-67
2023/12/24 08:05:13;;;;;;;1.80;1.70;;;;;;;14.29;43.88;99318.63;10362976;28;20235;-66
2023/12/24 08:10:15;;;;;;;1.60;1.60;;;;;;;14.18;43.77;99406.28;10365022;28;20260;-67
2023/12/24 08:15:21;;;;;;;1.70;1.60;;;;;;;13.68;44.76;99326.28;10364808;28;20225;-67
2023/12/24 08:20:23;;;;;;;1.60;1.60;;;;;;;12.45;46.38;99392.31;10363598;28;20328;-67
2023/12/24 08:25:24;;;;;;;2.10;2.00;;;;;;;13.90;44.76;99290.97;10359996;28;20232;-66
2023/12/24 08:30:26;;;;;;;2.00;1.90;;;;;;;13.69;44.10;99360.19;10360328;28;20241;-67
2023/12/24 08:35:28;;;;;;;1.90;1.80;;;;;;;13.40;44.99;99342.78;10361237;28;20351;-67
2023/12/24 08:40:29;;;;;;;1.90;1.80;;;;;;;13.25;45.44;99420.94;10359337;28;20661;-66
2023/12/24 08:45:31;;;;;;;1.77;1.70;;;;;;;13.52;45.16;99388.63;10361085;28;20324;-67
2023/12/24 08:50:33;;;;;;;2.00;1.90;;;;;;;14.51;44.86;99298.34;10360795;28;20253;-67
2023/12/24 08:55:34;;;;;;;1.70;1.60;;;;;;;13.25;45.73;99392.19;10361052;28;20233;-68
2023/12/24 09:00:36;;;;;;;2.10;2.00;;;;;;;13.57;45.26;99397.69;10358433;28;20252;-68
2023/12/24 09:05:38;;;;;;;2.17;2.07;;;;;;;13.99;45.04;99408.84;10356446;28;20245;-66
2023/12/24 09:10:41;;;;;;;2.60;2.40;;;;;;;14.42;44.70;99379.59;10357172;28;20245;-65
2023/12/24 09:15:43;;;;;;;2.40;2.20;;;;;;;14.30;45.27;99326.47;10351135;28;20249;-66
2023/12/24 09:20:44;;;;;;;2.50;2.40;;;;;;;13.24;46.28;99443.44;10355821;28;20241;-65
2023/12/24 09:25:46;;;;;;;2.40;2.20;;;;;;;13.27;47.60;99312.19;10355139;28;20894;-66
2023/12/24 09:30:48;;;;;;;2.00;1.90;;;;;;;12.63;48.25;99324.59;10354205;28;20272;-66
2023/12/24 09:35:50;;;;;;;1.90;1.80;;;;;;;13.54;46.53;99330.91;10359239;28;20299;-66
2023/12/24 09:40:52;;;;;;;3.13;2.20;;;;;;;13.02;47.69;99295.97;10359960;28;20237;-67
2023/12/24 09:45:54;;;;;;;2.10;2.00;;;;;;;13.75;46.29;99358.50;10353571;28;20233;-66
2023/12/24 09:50:55;;;;;;;2.30;2.20;;;;;;;13.59;46.66;99363.34;10319193;28;20233;-66
2023/12/24 09:55:58;;;;;;;1.90;1.80;;;;;;;14.26;44.88;99424.84;10358991;28;20383;-67
2023/12/24 10:01:00;;;;;;;2.03;1.93;;;;;;;13.60;47.02;99367.69;10371047;28;20267;-67
2023/12/24 10:06:04;;;;;;;2.30;2.20;;;;;;;12.13;48.32;99466.31;10360172;28;20233;-67
2023/12/24 10:11:20;;;;;;;2.30;2.20;;;;;;;14.26;46.65;99317.22;10365321;28;20807;-66
2023/12/24 10:16:22;;;;;;;2.30;2.20;;;;;;;13.29;47.82;99388.09;10356641;28;20248;-66
2023/12/24 10:21:24;;;;;;;2.57;2.37;;;;;;;14.61;44.70;99483.63;10359993;28;20719;-67
2023/12/24 10:26:26;;;;;;;3.17;2.97;;;;;;;14.31;45.91;99406.19;10355398;28;20307;-66
2023/12/24 10:31:28;;;;;;;2.40;2.30;;;;;;;14.01;46.29;99435.53;10310643;28;20271;-66
2023/12/24 10:36:29;;;;;;;2.20;2.10;;;;;;;14.64;45.96;99339.63;10353210;28;20229;-64
2023/12/24 10:41:31;;;;;;;2.33;2.23;;;;;;;13.41;47.32;99415.13;10355355;28;20924;-65
2023/12/24 10:46:33;;;;;;;2.50;2.40;;;;;;;13.24;47.70;99393.22;10352981;28;20244;-65
2023/12/24 10:51:35;;;;;;;2.10;2.00;;;;;;;13.74;47.17;99386.44;10350328;28;20256;-66
2023/12/24 10:56:54;;;;;;;6.63;4.77;;;;;;;15.43;44.84;99346.03;10355150;28;20319;-76
2023/12/24 11:06:40;;;;;;;2.70;2.60;;;;;;;7.89;57.83;99435.22;10501084;27;20314;-65
2023/12/24 11:11:52;;;;;;;2.50;2.40;;;;;;;10.78;53.94;99241.81;10386814;28;20225;-70
2023/12/24 11:16:54;;;;;;;2.50;2.40;;;;;;;12.62;50.12;99249.63;10415701;28;20246;-66
2023/12/24 11:22:10;;;;;;;2.47;2.30;;;;;;;11.83;51.98;99224.53;10430782;28;20248;-67
2023/12/24 11:27:12;;;;;;;2.37;2.27;;;;;;;11.29;53.01;99245.91;10437620;28;20238;-79
2023/12/24 11:32:26;;;;;;;2.20;2.10;;;;;;;11.85;51.40;99306.41;10432163;28;20282;-74
2023/12/24 11:37:35;;;;;;;2.40;2.30;;;;;;;11.97;50.87;99312.81;10432516;28;20241;-70
2023/12/24 11:42:47;;;;;;;2.20;2.10;;;;;;;11.32;51.45;99406.22;10430542;28;20319;-72
2023/12/24 11:47:51;;;;;;;2.50;2.40;;;;;;;11.63;51.70;99317.31;10428724;28;20299;-73
2023/12/24 11:52:53;;;;;;;2.30;2.20;;;;;;;12.27;51.91;99221.22;10449690;28;20224;-69
2023/12/24 11:57:56;;;;;;;2.27;2.17;;;;;;;12.53;49.87;99348.34;10431003;28;20227;-69
2023/12/24 12:02:59;;;;;;;2.00;1.90;;;;;;;11.15;52.50;99364.69;10425022;28;20289;-67
2023/12/24 12:08:03;;;;;;;2.47;2.27;;;;;;;11.58;52.00;99313.56;10428815;28;20240;-66
2023/12/24 12:13:05;;;;;;;2.57;2.47;;;;;;;12.26;50.70;99259.78;10432628;28;20225;-66
2023/12/24 12:18:08;;;;;;;2.40;2.30;;;;;;;12.75;50.13;99257.66;10402278;28;20233;-68
2023/12/24 12:23:11;;;;;;;2.20;2.10;;;;;;;12.31;50.68;99275.28;10412034;28;20323;-68
2023/12/24 12:28:13;;;;;;;3.10;2.83;;;;;;;10.70;51.30;99493.50;10404273;28;20244;-69
2023/12/24 12:33:15;;;;;;;2.47;2.20;;;;;;;12.00;51.49;99264.16;10368109;28;20308;-67
2023/12/24 12:38:16;;;;;;;2.70;2.50;;;;;;;12.35;49.88;99363.19;10363727;28;20325;-75
2023/12/24 12:43:20;;;;;;;2.37;2.27;;;;;;;12.52;50.19;99288.47;10359685;28;20229;-74
2023/12/24 12:48:22;;;;;;;2.73;2.60;;;;;;;11.92;50.96;99314.47;10355511;28;20233;-66
2023/12/24 12:53:25;;;;;;;2.70;2.60;;;;;;;11.95;50.07;99399.88;10363283;28;20308;-67
2023/12/24 12:58:27;;;;;;;2.60;2.40;;;;;;;12.26;50.16;99355.53;10356140;28;20708;-67
2023/12/24 13:03:28;;;;;;;2.00;1.90;;;;;;;10.45;52.19;99439.53;10360625;28;20248;-76
2023/12/24 13:08:30;;;;;;;2.50;2.30;;;;;;;12.71;49.69;99294.03;10401023;28;20940;-77
2023/12/24 13:13:34;;;;;;;3.10;2.70;;;;;;;11.50;52.01;99266.34;10394261;28;20229;-75
2023/12/24 13:18:37;;;;;;;2.67;2.47;;;;;;;11.06;52.44;99315.84;10348673;28;20233;-72
2023/12/24 13:23:39;;;;;;;3.00;2.70;;;;;;;13.24;48.72;99307.25;10364815;28;20229;-69
2023/12/24 13:28:41;;;;;;;2.70;2.50;;;;;;;12.91;48.79;99327.00;10373056;28;20245;-68
2023/12/24 13:33:42;;;;;;;2.40;2.30;;;;;;;11.07;51.85;99379.91;10361952;28;20611;-74
2023/12/24 13:38:45;;;;;;;2.50;2.40;;;;;;;11.39;51.50;99302.59;10357343;28;20229;-72
2023/12/24 13:43:47;;;;;;;2.00;1.90;;;;;;;12.14;49.26;99431.25;10362575;28;20229;-72
2023/12/24 13:48:49;;;;;;;1.77;1.67;;;;;;;11.86;50.29;99355.50;10360298;28;20237;-68
2023/12/24 13:53:51;;;;;;;2.40;2.20;;;;;;;12.89;48.83;99309.44;10355332;28;20535;-68
2023/12/24 13:58:52;;;;;;;2.43;2.27;;;;;;;11.67;50.51;99322.28;10358524;28;20221;-67
2023/12/24 14:03:54;;;;;;;2.13;2.03;;;;;;;12.55;48.62;99384.69;10361364;28;20611;-67
2023/12/24 14:08:58;;;;;;;2.23;2.13;;;;;;;10.12;51.48;99560.34;10361054;28;20225;-78
2023/12/24 14:14:00;;;;;;;2.97;2.77;;;;;;;11.79;49.91;99430.53;10376566;28;20260;-81
2023/12/24 14:19:01;;;;;;;2.30;2.13;;;;;;;12.41;49.91;99318.59;10367424;28;20333;-68
2023/12/24 14:24:03;;;;;;;2.63;2.53;;;;;;;11.00;51.69;99520.97;10351739;28;20753;-67
2023/12/24 14:29:06;;;;;;;2.00;1.90;;;;;;;12.07;49.92;99488.59;10350238;28;20346;-67
2023/12/24 14:34:08;;;;;;;2.20;2.10;;;;;;;11.98;50.76;99443.19;10356296;28;20229;-69
2023/12/24 14:39:09;;;;;;;2.60;2.40;;;;;;;12.53;49.64;99416.25;10338920;28;20245;-68
2023/12/24 14:44:11;;;;;;;2.40;2.30;;;;;;;11.78;52.37;99310.97;10354870;28;20260;-68
2023/12/24 14:49:13;;;;;;;2.20;2.10;;;;;;;10.00;55.13;99358.69;10348023;28;20364;-68
2023/12/24 14:54:15;;;;;;;2.10;2.00;;;;;;;12.32;51.49;99306.44;10341608;28;20316;-68
2023/12/24 14:59:16;;;;;;;2.17;2.07;;;;;;;10.83;53.33;99500.81;10352402;28;20241;-68
2023/12/24 15:04:18;;;;;;;3.00;2.70;;;;;;;12.34;51.20;99329.34;10348694;28;20248;-68
2023/12/24 15:09:21;;;;;;;2.20;2.10;;;;;;;12.42;50.49;99387.34;10353815;28;20236;-68
2023/12/24 15:14:26;;;;;;;3.37;3.10;;;;;;;13.19;48.83;99422.56;10353744;28;20324;-66
2023/12/24 15:19:28;;;;;;;2.70;2.50;;;;;;;13.29;48.90;99424.88;10358263;28;20241;-67
2023/12/24 15:24:30;;;;;;;2.53;2.43;;;;;;;12.01;50.90;99506.31;10349531;28;20732;-66
2023/12/24 15:29:32;;;;;;;2.80;2.60;;;;;;;12.87;49.13;99511.06;10352974;28;20679;-67
2023/12/24 15:34:34;;;;;;;2.20;2.10;;;;;;;11.31;53.00;99359.00;10357420;28;21091;-67
2023/12/24 15:39:36;;;;;;;2.30;2.20;;;;;;;11.92;51.83;99384.19;10354470;28;20736;-67
2023/12/24 15:44:38;;;;;;;2.20;2.10;;;;;;;12.37;50.81;99419.34;10354566;28;20678;-67
2023/12/24 15:49:43;;;;;;;2.20;2.10;;;;;;;12.98;48.53;99511.47;10355516;28;20245;-68
2023/12/24 15:54:45;;;;;;;2.17;2.07;;;;;;;12.33;50.58;99499.41;10354033;28;20310;-66
2023/12/24 15:59:46;;;;;;;2.40;2.30;;;;;;;12.69;49.59;99486.69;10364579;28;20307;-67
2023/12/24 16:04:48;;;;;;;2.20;2.10;;;;;;;11.97;50.66;99542.59;10363300;28;20236;-69
2023/12/24 16:09:50;;;;;;;2.20;2.10;;;;;;;12.56;50.45;99385.50;10365833;28;20237;-68
2023/12/24 16:14:52;;;;;;;2.40;2.30;;;;;;;11.98;51.14;99419.06;10355088;28;20245;-72
2023/12/24 16:19:54;;;;;;;2.03;1.93;;;;;;;12.07;50.63;99443.81;10356329;28;20236;-82
2023/12/24 16:24:56;;;;;;;2.20;2.10;;;;;;;12.75;49.50;99410.69;10364202;28;20249;-75
2023/12/24 16:29:58;;;;;;;2.30;2.20;;;;;;;13.48;49.08;99361.34;10357936;28;20233;-80
2023/12/24 16:35:01;;;;;;;2.20;2.10;;;;;;;13.70;48.18;99417.47;10360529;28;20271;-78
2023/12/24 16:40:04;;;;;;;2.10;2.00;;;;;;;13.78;47.38;99444.94;10359343;28;20233;-80
2023/12/24 16:45:06;;;;;;;2.40;2.30;;;;;;;13.21;47.96;99537.91;10358395;28;20244;-75
2023/12/24 16:50:08;;;;;;;3.20;2.33;;;;;;;13.61;46.68;99622.03;10358485;28;20316;-82
2023/12/24 16:55:10;;;;;;;2.27;2.00;;;;;;;14.17;46.42;99488.88;10355445;28;20229;-73
2023/12/24 17:00:12;;;;;;;2.10;2.00;;;;;;;13.06;47.83;99565.00;10355176;28;20240;-74
2023/12/24 17:05:14;;;;;;;2.77;2.57;;;;;;;13.26;48.36;99479.84;10363449;28;20230;-76
2023/12/24 17:10:18;;;;;;;2.37;2.27;;;;;;;14.33;46.36;99455.22;10360071;28;20244;-79
2023/12/24 17:15:22;;;;;;;2.50;2.30;;;;;;;14.82;45.81;99446.63;10354935;28;20261;-76
2023/12/24 17:20:24;;;;;;;6.10;2.20;;;;;;;13.95;46.72;99560.97;10363389;28;20266;-77
2023/12/24 17:25:28;;;;;;;2.00;1.90;;;;;;;14.28;46.47;99468.50;10361918;28;20327;-83
2023/12/24 17:30:33;;;;;;;2.10;2.00;;;;;;;12.87;48.48;99580.88;10355971;28;20268;-87
2023/12/24 17:35:39;;;;;;;4.63;2.33;;;;;;;13.18;49.01;99430.88;10357377;28;20284;-76
2023/12/24 17:40:41;;;;;;;2.30;2.20;;;;;;;13.26;48.21;99487.03;10357921;28;20230;-75
2023/12/24 17:45:42;;;;;;;2.37;2.27;;;;;;;14.61;46.16;99413.63;10355564;28;20268;-75
2023/12/24 17:50:44;;;;;;;2.90;2.37;;;;;;;14.26;45.75;99531.69;10356885;28;20229;-79
2023/12/24 17:55:46;;;;;;;3.60;3.30;;;;;;;13.56;47.57;99526.94;10372127;28;20650;-78
2023/12/24 18:01:00;;;;;;;2.53;2.30;;;;;;;12.66;49.62;99417.31;10364469;28;20240;-79
2023/12/24 18:06:07;;;;;;;2.57;2.37;;;;;;;13.34;48.20;99475.28;10380897;28;20290;-78
2023/12/24 18:11:13;;;;;;;2.50;2.30;;;;;;;13.25;47.96;99456.69;10362144;28;20312;-78
2023/12/24 18:16:16;;;;;;;3.07;2.33;;;;;;;13.24;47.38;99580.47;10365606;28;20282;-79
2023/12/24 18:21:20;;;;;;;2.10;2.00;;;;;;;13.96;46.08;99537.56;10353845;28;20228;-79
2023/12/24 18:26:24;;;;;;;2.53;1.90;;;;;;;13.94;46.49;99502.00;10375170;28;20248;-78
2023/12/24 18:31:26;;;;;;;1.93;1.80;;;;;;;13.51;46.27;99608.19;10362047;28;20329;-79
2023/12/24 18:36:29;;;;;;;3.67;2.50;;;;;;;14.44;46.08;99467.16;10394036;28;20240;-78
2023/12/24 18:41:31;;;;;;;2.00;1.90;;;;;;;13.55;46.97;99533.34;10406448;28;20267;-78
2023/12/24 18:46:33;;;;;;;2.07;1.97;;;;;;;14.01;45.28;99623.84;10405890;28;20264;-78
2023/12/24 18:51:35;;;;;;;4.63;2.30;;;;;;;14.47;45.90;99493.66;10401172;28;20609;-79
2023/12/24 18:56:37;;;;;;;2.00;1.90;;;;;;;14.17;45.56;99582.22;10403106;28;20868;-79
2023/12/24 19:01:39;;;;;;;2.33;2.10;;;;;;;14.27;45.95;99482.19;10403052;28;20232;-79
2023/12/24 19:06:41;;;;;;;2.67;2.47;;;;;;;14.49;44.94;99512.28;10404014;28;20237;-78
2023/12/24 19:11:44;;;;;;;2.77;2.43;;;;;;;14.29;45.14;99529.38;10403638;28;20224;-78
2023/12/24 19:16:48;;;;;;;2.83;2.37;;;;;;;14.18;45.07;99525.50;10401592;28;20275;-79
2023/12/24 19:21:52;;;;;;;3.83;2.10;;;;;;;14.76;44.10;99484.13;10401259;28;20241;-78
2023/12/24 19:26:54;;;;;;;2.20;2.00;;;;;;;13.80;44.79;99619.53;10381370;28;20247;-78
2023/12/24 19:31:56;;;;;;;2.60;2.10;;;;;;;14.35;45.50;99437.00;10373937;28;20298;-78
2023/12/24 19:37:00;;;;;;;2.20;2.10;;;;;;;13.17;45.81;99556.28;10396307;28;20223;-78
2023/12/24 19:42:03;;;;;;;2.70;2.10;;;;;;;14.06;44.97;99507.53;10409963;28;20327;-76
2023/12/24 19:47:05;;;;;;;2.47;2.27;;;;;;;14.64;44.25;99475.09;10409354;28;20252;-80
2023/12/24 19:52:07;;;;;;;5.27;2.80;;;;;;;14.72;44.20;99439.00;10396318;28;20608;-77
2023/12/24 19:57:08;;;;;;;3.17;2.13;;;;;;;14.47;43.86;99514.38;10410193;28;20235;-77
2023/12/24 20:02:10;;;;;;;2.13;1.93;;;;;;;14.14;44.55;99489.31;10407530;28;20244;-77
2023/12/24 20:07:12;;;;;;;2.57;2.37;;;;;;;13.39;44.46;99610.69;10404696;28;20243;-79
2023/12/24 20:12:14;;;;;;;4.73;2.13;;;;;;;13.76;44.29;99602.19;10393062;28;20232;-77
2023/12/24 20:17:15;;;;;;;2.23;2.10;;;;;;;13.61;44.28;99610.47;10402778;28;20868;-77
2023/12/24 20:22:23;;;;;;;2.83;2.20;;;;;;;13.94;43.49;99606.91;10401930;28;20726;-79
2023/12/24 20:27:25;;;;;;;3.53;1.97;;;;;;;14.68;43.16;99511.31;10393966;28;20286;-78
2023/12/24 20:32:26;;;;;;;2.00;1.90;;;;;;;14.28;43.93;99527.72;10405724;28;20621;-79
2023/12/24 20:37:28;;;;;;;2.77;2.20;;;;;;;14.28;42.75;99681.13;10401410;28;20240;-75
2023/12/24 20:42:34;;;;;;;4.73;2.10;;;;;;;13.20;43.66;99651.78;10404072;28;20610;-77
2023/12/24 20:47:36;;;;;;;3.10;2.40;;;;;;;14.34;42.14;99553.78;10404259;28;20251;-74
2023/12/24 20:52:38;;;;;;;2.30;2.10;;;;;;;13.76;42.57;99576.09;10400058;28;20722;-73
2023/12/24 20:57:41;;;;;;;2.83;2.50;;;;;;;13.43;42.65;99581.53;10402428;28;20781;-75
2023/12/24 21:02:43;;;;;;;3.57;2.00;;;;;;;13.39;42.24;99577.63;10401765;28;20267;-70
2023/12/24 21:07:47;;;;;;;2.50;2.30;;;;;;;14.17;41.08;99504.19;10407974;28;20227;-76
2023/12/24 21:12:49;;;;;;;2.40;2.20;;;;;;;13.54;41.82;99537.06;10403457;28;20256;-75
2023/12/24 21:17:52;;;;;;;2.63;1.90;;;;;;;13.43;41.33;99589.59;10401574;28;20829;-75
2023/12/24 21:22:54;;;;;;;1.80;1.70;;;;;;;13.36;41.56;99603.06;10398394;28;20238;-78
2023/12/24 21:27:56;;;;;;;2.10;1.90;;;;;;;13.74;41.57;99548.59;10400476;28;20299;-79
2023/12/24 21:32:58;;;;;;;4.00;1.90;;;;;;;13.87;40.82;99558.50;10394201;28;20229;-86
2023/12/24 21:38:00;;;;;;;2.00;1.90;;;;;;;13.21;41.74;99545.97;10396869;28;20711;-79
2023/12/24 21:43:04;;;;;;;1.90;1.80;;;;;;;13.65;41.02;99552.56;10400315;28;20228;-81
2023/12/24 21:48:06;;;;;;;4.63;3.23;;;;;;;13.16;41.62;99541.22;10392809;28;20232;-79
2023/12/24 21:53:10;;;;;;;1.77;1.67;;;;;;;14.87;39.61;99530.28;10405118;28;20239;-79
2023/12/24 21:58:12;;;;;;;2.63;2.30;;;;;;;13.79;40.75;99494.19;10403159;28;20233;-75
2023/12/24 22:03:14;;;;;;;2.30;2.10;;;;;;;13.52;40.83;99593.72;10398557;28;20322;-74
2023/12/24 22:08:15;;;;;;;1.97;1.87;;;;;;;13.95;40.76;99498.25;10398563;28;20795;-70
2023/12/24 22:13:17;;;;;;;2.00;1.80;;;;;;;14.17;40.32;99475.41;10398802;28;20303;-73
2023/12/24 22:18:19;;;;;;;2.10;1.73;;;;;;;14.59;39.87;99481.16;10399591;28;20298;-72
2023/12/24 22:23:21;;;;;;;2.00;1.90;;;;;;;14.12;40.18;99620.53;10399869;28;20228;-76
2023/12/24 22:28:22;;;;;;;2.37;2.00;;;;;;;14.38;40.08;99532.66;10383729;28;21156;-73
2023/12/24 22:33:24;;;;;;;2.40;2.00;;;;;;;14.23;39.93;99586.75;10397639;28;20236;-68
2023/12/24 22:38:26;;;;;;;2.20;1.93;;;;;;;13.32;40.66;99635.91;10393671;28;20319;-73
2023/12/24 22:43:28;;;;;;;2.40;2.20;;;;;;;14.29;40.07;99574.28;10397982;28;20239;-71
2023/12/24 22:48:30;;;;;;;2.20;1.80;;;;;;;14.06;40.37;99524.53;10399448;28;20243;-73
2023/12/24 22:53:32;;;;;;;2.40;2.03;;;;;;;13.51;40.88;99629.69;10401720;28;20246;-69
2023/12/24 22:58:34;;;;;;;2.57;2.37;;;;;;;14.68;40.21;99487.09;10396055;28;20250;-70
2023/12/24 23:03:37;;;;;;;2.03;1.90;;;;;;;13.04;41.26;99634.19;10395225;28;20244;-70
2023/12/24 23:08:42;;;;;;;3.20;2.90;;;;;;;14.27;40.28;99558.34;10395527;28;20232;-69
2023/12/24 23:13:43;;;;;;;2.53;2.37;;;;;;;13.45;40.95;99655.56;10398809;28;20251;-68
2023/12/24 23:18:45;;;;;;;3.07;2.60;;;;;;;14.27;40.83;99483.00;10395808;28;20252;-70
2023/12/24 23:23:47;;;;;;;15.47;11.47;;;;;;;14.12;40.54;99617.00;10394671;28;20306;-69
2023/12/24 23:28:49;;;;;;;2.27;1.80;;;;;;;13.95;41.51;99485.66;10396549;28;20225;-71